sensor_id;sensor_type;location;lat;lon;timestamp;temperature;humidity
8858;DHT22;4465;50.904;4.696;2023-04-24T00:02:23;9.70;99.90
8858;DHT22;4465;50.904;4.696;2023-04-24T00:04:49;9.70;99.90
8858;DHT22;4465;50.904;4.696;2023-04-24T00:07:15;9.70;99.90
8858;DHT22;4465;50.904;4.696;2023-04-24T00:09:45;9.70;99.90
8858;DHT22;4465;50.904;4.696;2023-04-24T00:12:11;9.70;99.90
8858;DHT22;4465;50.904;4.696;2023-04-24T00:14:39;9.70;99.90
8858;DHT22;4465;50.904;4.696;2023-04-24T00:17:05;9.70;99.90
8858;DHT22;4465;50.904;4.696;2023-04-24T00:19:31;9.70;99.90
8858;DHT22;4465;50.904;4.696;2023-04-24T00:21:57;9.70;99.90
8858;DHT22;4465;50.904;4.696;2023-04-24T00:24:23;9.70;99.90
8858;DHT22;4465;50.904;4.696;2023-04-24T00:26:48;9.70;99.90
8858;DHT22;4465;50.904;4.696;2023-04-24T00:29:14;9.70;99.90
8858;DHT22;4465;50.904;4.696;2023-04-24T00:31:40;9.70;99.90
8858;DHT22;4465;50.904;4.696;2023-04-24T00:34:06;9.70;99.90
8858;DHT22;4465;50.904;4.696;2023-04-24T00:36:32;9.70;99.90
8858;DHT22;4465;50.904;4.696;2023-04-24T00:38:58;9.70;99.90
8858;DHT22;4465;50.904;4.696;2023-04-24T00:41:24;9.70;99.90
8858;DHT22;4465;50.904;4.696;2023-04-24T00:43:51;9.70;99.90
8858;DHT22;4465;50.904;4.696;2023-04-24T00:46:19;9.70;99.90
8858;DHT22;4465;50.904;4.696;2023-04-24T00:48:46;9.70;99.90
8858;DHT22;4465;50.904;4.696;2023-04-24T00:51:11;9.70;99.90
8858;DHT22;4465;50.904;4.696;2023-04-24T00:53:37;9.70;99.90
8858;DHT22;4465;50.904;4.696;2023-04-24T00:56:03;9.70;99.90
8858;DHT22;4465;50.904;4.696;2023-04-24T00:58:30;9.70;99.90
8858;DHT22;4465;50.904;4.696;2023-04-24T01:00:56;9.60;99.90
8858;DHT22;4465;50.904;4.696;2023-04-24T01:03:26;9.60;99.90
8858;DHT22;4465;50.904;4.696;2023-04-24T01:05:54;9.60;99.90
8858;DHT22;4465;50.904;4.696;2023-04-24T01:08:20;9.60;99.90
8858;DHT22;4465;50.904;4.696;2023-04-24T01:10:50;9.60;99.90
8858;DHT22;4465;50.904;4.696;2023-04-24T01:13:17;9.60;99.90
8858;DHT22;4465;50.904;4.696;2023-04-24T01:15:43;9.50;99.90
8858;DHT22;4465;50.904;4.696;2023-04-24T01:18:12;9.50;99.90
8858;DHT22;4465;50.904;4.696;2023-04-24T01:20:41;9.50;99.90
8858;DHT22;4465;50.904;4.696;2023-04-24T01:23:12;9.50;99.90
8858;DHT22;4465;50.904;4.696;2023-04-24T01:25:38;9.50;99.90
8858;DHT22;4465;50.904;4.696;2023-04-24T01:28:04;9.50;99.90
8858;DHT22;4465;50.904;4.696;2023-04-24T01:30:30;9.50;99.90
8858;DHT22;4465;50.904;4.696;2023-04-24T01:32:56;9.50;99.90
8858;DHT22;4465;50.904;4.696;2023-04-24T01:35:22;9.50;99.90
8858;DHT22;4465;50.904;4.696;2023-04-24T01:37:48;9.50;99.90
8858;DHT22;4465;50.904;4.696;2023-04-24T01:40:14;9.40;99.90
8858;DHT22;4465;50.904;4.696;2023-04-24T01:42:40;9.50;99.90
8858;DHT22;4465;50.904;4.696;2023-04-24T01:45:10;9.40;99.90
8858;DHT22;4465;50.904;4.696;2023-04-24T01:47:36;9.50;99.90
8858;DHT22;4465;50.904;4.696;2023-04-24T01:50:04;9.40;99.90
8858;DHT22;4465;50.904;4.696;2023-04-24T01:52:31;9.50;99.90
8858;DHT22;4465;50.904;4.696;2023-04-24T01:55:05;9.50;99.90
8858;DHT22;4465;50.904;4.696;2023-04-24T01:57:31;9.40;99.90
8858;DHT22;4465;50.904;4.696;2023-04-24T02:00:02;9.40;99.90
8858;DHT22;4465;50.904;4.696;2023-04-24T02:02:30;9.40;99.90
8858;DHT22;4465;50.904;4.696;2023-04-24T02:04:56;9.40;99.90
8858;DHT22;4465;50.904;4.696;2023-04-24T02:07:24;9.40;99.90
8858;DHT22;4465;50.904;4.696;2023-04-24T02:09:52;9.30;99.90
8858;DHT22;4465;50.904;4.696;2023-04-24T02:12:23;9.30;99.90
8858;DHT22;4465;50.904;4.696;2023-04-24T02:14:48;9.30;99.90
8858;DHT22;4465;50.904;4.696;2023-04-24T02:17:14;9.30;99.90
8858;DHT22;4465;50.904;4.696;2023-04-24T02:19:41;9.20;99.90
8858;DHT22;4465;50.904;4.696;2023-04-24T02:22:07;9.20;99.90
8858;DHT22;4465;50.904;4.696;2023-04-24T02:24:33;9.20;99.90
8858;DHT22;4465;50.904;4.696;2023-04-24T02:27:01;9.20;99.90
8858;DHT22;4465;50.904;4.696;2023-04-24T02:29:29;9.20;99.90
8858;DHT22;4465;50.904;4.696;2023-04-24T02:31:57;9.20;99.90
8858;DHT22;4465;50.904;4.696;2023-04-24T02:34:23;9.20;99.90
8858;DHT22;4465;50.904;4.696;2023-04-24T02:36:51;9.20;99.90
8858;DHT22;4465;50.904;4.696;2023-04-24T02:39:19;9.20;99.90
8858;DHT22;4465;50.904;4.696;2023-04-24T02:41:45;9.20;99.90
8858;DHT22;4465;50.904;4.696;2023-04-24T02:44:13;9.20;99.90
8858;DHT22;4465;50.904;4.696;2023-04-24T02:46:42;9.20;99.90
8858;DHT22;4465;50.904;4.696;2023-04-24T02:49:08;9.20;99.90
8858;DHT22;4465;50.904;4.696;2023-04-24T02:51:34;9.20;99.90
8858;DHT22;4465;50.904;4.696;2023-04-24T02:54:00;9.20;99.90
8858;DHT22;4465;50.904;4.696;2023-04-24T02:56:28;9.20;99.90
8858;DHT22;4465;50.904;4.696;2023-04-24T02:58:54;9.20;99.90
8858;DHT22;4465;50.904;4.696;2023-04-24T03:01:20;9.20;99.90
8858;DHT22;4465;50.904;4.696;2023-04-24T03:03:45;9.20;99.90
8858;DHT22;4465;50.904;4.696;2023-04-24T03:06:11;9.10;99.90
8858;DHT22;4465;50.904;4.696;2023-04-24T03:08:37;9.10;99.90
8858;DHT22;4465;50.904;4.696;2023-04-24T03:11:03;9.10;99.90
8858;DHT22;4465;50.904;4.696;2023-04-24T03:13:28;9.10;99.90
8858;DHT22;4465;50.904;4.696;2023-04-24T03:15:57;9.00;99.90
8858;DHT22;4465;50.904;4.696;2023-04-24T03:18:22;9.00;99.90
8858;DHT22;4465;50.904;4.696;2023-04-24T03:20:48;9.00;99.90
8858;DHT22;4465;50.904;4.696;2023-04-24T03:23:16;9.00;99.90
8858;DHT22;4465;50.904;4.696;2023-04-24T03:25:42;8.90;99.90
8858;DHT22;4465;50.904;4.696;2023-04-24T03:28:08;9.00;99.90
8858;DHT22;4465;50.904;4.696;2023-04-24T03:30:34;9.00;99.90
8858;DHT22;4465;50.904;4.696;2023-04-24T03:33:00;9.00;99.90
8858;DHT22;4465;50.904;4.696;2023-04-24T03:35:26;8.90;99.90
8858;DHT22;4465;50.904;4.696;2023-04-24T03:37:52;8.90;99.90
8858;DHT22;4465;50.904;4.696;2023-04-24T03:40:17;8.90;99.90
8858;DHT22;4465;50.904;4.696;2023-04-24T03:42:43;8.90;99.90
8858;DHT22;4465;50.904;4.696;2023-04-24T03:45:09;8.90;99.90
8858;DHT22;4465;50.904;4.696;2023-04-24T03:47:35;8.90;99.90
8858;DHT22;4465;50.904;4.696;2023-04-24T03:50:01;8.90;99.90
8858;DHT22;4465;50.904;4.696;2023-04-24T03:52:27;8.90;99.90
8858;DHT22;4465;50.904;4.696;2023-04-24T03:54:53;8.80;99.90
8858;DHT22;4465;50.904;4.696;2023-04-24T03:57:18;8.90;99.90
8858;DHT22;4465;50.904;4.696;2023-04-24T03:59:47;8.80;99.90
8858;DHT22;4465;50.904;4.696;2023-04-24T04:02:13;8.80;99.90
8858;DHT22;4465;50.904;4.696;2023-04-24T04:04:41;8.80;99.90
8858;DHT22;4465;50.904;4.696;2023-04-24T04:07:09;8.80;99.90
8858;DHT22;4465;50.904;4.696;2023-04-24T04:09:38;8.80;99.90
8858;DHT22;4465;50.904;4.696;2023-04-24T04:12:07;8.80;99.90
8858;DHT22;4465;50.904;4.696;2023-04-24T04:14:35;8.80;99.90
8858;DHT22;4465;50.904;4.696;2023-04-24T04:17:01;8.80;99.90
8858;DHT22;4465;50.904;4.696;2023-04-24T04:19:29;8.80;99.90
8858;DHT22;4465;50.904;4.696;2023-04-24T04:21:57;8.80;99.90
8858;DHT22;4465;50.904;4.696;2023-04-24T04:24:23;8.80;99.90
8858;DHT22;4465;50.904;4.696;2023-04-24T04:26:49;8.80;99.90
8858;DHT22;4465;50.904;4.696;2023-04-24T04:29:16;8.80;99.90
8858;DHT22;4465;50.904;4.696;2023-04-24T04:31:44;8.80;99.90
8858;DHT22;4465;50.904;4.696;2023-04-24T04:34:10;8.80;99.90
8858;DHT22;4465;50.904;4.696;2023-04-24T04:36:37;8.80;99.90
8858;DHT22;4465;50.904;4.696;2023-04-24T04:39:05;8.80;99.90
8858;DHT22;4465;50.904;4.696;2023-04-24T04:41:33;8.80;99.90
8858;DHT22;4465;50.904;4.696;2023-04-24T04:44:05;8.80;99.90
8858;DHT22;4465;50.904;4.696;2023-04-24T04:46:32;8.80;99.90
8858;DHT22;4465;50.904;4.696;2023-04-24T04:49:02;8.80;99.90
8858;DHT22;4465;50.904;4.696;2023-04-24T04:51:28;8.80;99.90
8858;DHT22;4465;50.904;4.696;2023-04-24T04:53:54;8.80;99.90
8858;DHT22;4465;50.904;4.696;2023-04-24T04:56:22;8.80;99.90
8858;DHT22;4465;50.904;4.696;2023-04-24T04:58:48;8.80;99.90
8858;DHT22;4465;50.904;4.696;2023-04-24T05:01:14;8.80;99.90
8858;DHT22;4465;50.904;4.696;2023-04-24T05:03:40;8.80;99.90
8858;DHT22;4465;50.904;4.696;2023-04-24T05:06:09;8.80;99.90
8858;DHT22;4465;50.904;4.696;2023-04-24T05:08:35;8.80;99.90
8858;DHT22;4465;50.904;4.696;2023-04-24T05:11:01;8.70;99.90
8858;DHT22;4465;50.904;4.696;2023-04-24T05:13:27;8.70;99.90
8858;DHT22;4465;50.904;4.696;2023-04-24T05:15:55;8.70;99.90
8858;DHT22;4465;50.904;4.696;2023-04-24T05:18:21;8.70;99.90
8858;DHT22;4465;50.904;4.696;2023-04-24T05:20:47;8.70;99.90
8858;DHT22;4465;50.904;4.696;2023-04-24T05:23:15;8.70;99.90
8858;DHT22;4465;50.904;4.696;2023-04-24T05:25:41;8.70;99.90
8858;DHT22;4465;50.904;4.696;2023-04-24T05:28:07;8.60;99.90
8858;DHT22;4465;50.904;4.696;2023-04-24T05:30:32;8.60;99.90
8858;DHT22;4465;50.904;4.696;2023-04-24T05:32:58;8.60;99.90
8858;DHT22;4465;50.904;4.696;2023-04-24T05:35:24;8.60;99.90
8858;DHT22;4465;50.904;4.696;2023-04-24T05:37:50;8.60;99.90
8858;DHT22;4465;50.904;4.696;2023-04-24T05:40:16;8.60;99.90
8858;DHT22;4465;50.904;4.696;2023-04-24T05:42:42;8.60;99.90
8858;DHT22;4465;50.904;4.696;2023-04-24T05:45:07;8.60;99.90
8858;DHT22;4465;50.904;4.696;2023-04-24T05:47:34;8.60;99.90
8858;DHT22;4465;50.904;4.696;2023-04-24T05:50:00;8.50;99.90
8858;DHT22;4465;50.904;4.696;2023-04-24T05:52:26;8.50;99.90
8858;DHT22;4465;50.904;4.696;2023-04-24T05:54:52;8.50;99.90
8858;DHT22;4465;50.904;4.696;2023-04-24T05:57:22;8.50;99.90
8858;DHT22;4465;50.904;4.696;2023-04-24T05:59:48;8.50;99.90
8858;DHT22;4465;50.904;4.696;2023-04-24T06:02:16;8.40;99.90
8858;DHT22;4465;50.904;4.696;2023-04-24T06:04:43;8.40;99.90
8858;DHT22;4465;50.904;4.696;2023-04-24T06:07:10;8.40;99.90
8858;DHT22;4465;50.904;4.696;2023-04-24T06:09:38;8.40;99.90
8858;DHT22;4465;50.904;4.696;2023-04-24T06:12:11;8.40;99.90
8858;DHT22;4465;50.904;4.696;2023-04-24T06:14:40;8.40;99.90
8858;DHT22;4465;50.904;4.696;2023-04-24T06:17:06;8.40;99.90
8858;DHT22;4465;50.904;4.696;2023-04-24T06:19:32;8.40;99.90
8858;DHT22;4465;50.904;4.696;2023-04-24T06:21:57;8.40;99.90
8858;DHT22;4465;50.904;4.696;2023-04-24T06:24:26;8.40;99.90
8858;DHT22;4465;50.904;4.696;2023-04-24T06:26:55;8.40;99.90
8858;DHT22;4465;50.904;4.696;2023-04-24T06:29:22;8.50;99.90
8858;DHT22;4465;50.904;4.696;2023-04-24T06:31:52;8.40;99.90
8858;DHT22;4465;50.904;4.696;2023-04-24T06:34:18;8.40;99.90
8858;DHT22;4465;50.904;4.696;2023-04-24T06:36:44;8.40;99.90
8858;DHT22;4465;50.904;4.696;2023-04-24T06:39:10;8.40;99.90
8858;DHT22;4465;50.904;4.696;2023-04-24T06:41:36;8.50;99.90
8858;DHT22;4465;50.904;4.696;2023-04-24T06:44:01;8.50;99.90
8858;DHT22;4465;50.904;4.696;2023-04-24T06:46:32;8.50;99.90
8858;DHT22;4465;50.904;4.696;2023-04-24T06:49:00;8.50;99.90
8858;DHT22;4465;50.904;4.696;2023-04-24T06:51:26;8.50;99.90
8858;DHT22;4465;50.904;4.696;2023-04-24T06:53:53;8.50;99.90
8858;DHT22;4465;50.904;4.696;2023-04-24T06:56:19;8.50;99.90
8858;DHT22;4465;50.904;4.696;2023-04-24T06:58:48;8.50;99.90
8858;DHT22;4465;50.904;4.696;2023-04-24T07:01:16;8.50;99.90
8858;DHT22;4465;50.904;4.696;2023-04-24T07:03:42;8.50;99.90
8858;DHT22;4465;50.904;4.696;2023-04-24T07:06:08;8.50;99.90
8858;DHT22;4465;50.904;4.696;2023-04-24T07:08:35;8.50;99.90
8858;DHT22;4465;50.904;4.696;2023-04-24T07:11:02;8.60;99.90
8858;DHT22;4465;50.904;4.696;2023-04-24T07:13:28;8.50;99.90
8858;DHT22;4465;50.904;4.696;2023-04-24T07:15:54;8.60;99.90
8858;DHT22;4465;50.904;4.696;2023-04-24T07:18:21;8.60;99.90
8858;DHT22;4465;50.904;4.696;2023-04-24T07:20:47;8.60;99.90
8858;DHT22;4465;50.904;4.696;2023-04-24T07:23:16;8.60;99.90
8858;DHT22;4465;50.904;4.696;2023-04-24T07:25:42;8.60;99.90
8858;DHT22;4465;50.904;4.696;2023-04-24T07:28:08;8.70;99.90
8858;DHT22;4465;50.904;4.696;2023-04-24T07:30:34;8.70;99.90
8858;DHT22;4465;50.904;4.696;2023-04-24T07:33:02;8.70;99.90
8858;DHT22;4465;50.904;4.696;2023-04-24T07:35:27;8.70;99.90
8858;DHT22;4465;50.904;4.696;2023-04-24T07:37:53;8.70;99.90
8858;DHT22;4465;50.904;4.696;2023-04-24T07:40:19;8.70;99.90
8858;DHT22;4465;50.904;4.696;2023-04-24T07:42:50;8.70;99.90
8858;DHT22;4465;50.904;4.696;2023-04-24T07:45:16;8.80;99.90
8858;DHT22;4465;50.904;4.696;2023-04-24T07:47:42;8.80;99.90
8858;DHT22;4465;50.904;4.696;2023-04-24T07:50:11;8.80;99.90
8858;DHT22;4465;50.904;4.696;2023-04-24T07:52:40;8.80;99.90
8858;DHT22;4465;50.904;4.696;2023-04-24T07:55:06;8.80;99.90
8858;DHT22;4465;50.904;4.696;2023-04-24T07:57:34;8.80;99.90
8858;DHT22;4465;50.904;4.696;2023-04-24T08:00:03;8.80;99.90
8858;DHT22;4465;50.904;4.696;2023-04-24T08:02:29;8.90;99.90
8858;DHT22;4465;50.904;4.696;2023-04-24T08:04:55;8.90;99.90
8858;DHT22;4465;50.904;4.696;2023-04-24T08:07:21;8.90;99.90
8858;DHT22;4465;50.904;4.696;2023-04-24T08:09:47;8.90;99.90
8858;DHT22;4465;50.904;4.696;2023-04-24T08:12:15;9.00;99.90
8858;DHT22;4465;50.904;4.696;2023-04-24T08:14:41;9.10;99.90
8858;DHT22;4465;50.904;4.696;2023-04-24T08:17:07;9.20;99.90
8858;DHT22;4465;50.904;4.696;2023-04-24T08:19:32;9.30;99.90
8858;DHT22;4465;50.904;4.696;2023-04-24T08:22:00;9.40;99.90
8858;DHT22;4465;50.904;4.696;2023-04-24T08:24:26;9.50;99.90
8858;DHT22;4465;50.904;4.696;2023-04-24T08:26:52;9.50;99.90
8858;DHT22;4465;50.904;4.696;2023-04-24T08:29:19;9.60;99.90
8858;DHT22;4465;50.904;4.696;2023-04-24T08:31:45;9.60;99.90
8858;DHT22;4465;50.904;4.696;2023-04-24T08:34:11;9.70;99.90
8858;DHT22;4465;50.904;4.696;2023-04-24T08:36:37;9.70;99.90
8858;DHT22;4465;50.904;4.696;2023-04-24T08:39:08;9.70;99.90
8858;DHT22;4465;50.904;4.696;2023-04-24T08:41:34;9.70;99.90
8858;DHT22;4465;50.904;4.696;2023-04-24T08:44:01;9.70;99.90
8858;DHT22;4465;50.904;4.696;2023-04-24T08:46:30;9.70;99.90
8858;DHT22;4465;50.904;4.696;2023-04-24T08:48:56;9.70;99.90
8858;DHT22;4465;50.904;4.696;2023-04-24T08:51:22;9.70;99.90
8858;DHT22;4465;50.904;4.696;2023-04-24T08:53:51;9.80;99.90
8858;DHT22;4465;50.904;4.696;2023-04-24T08:56:17;9.90;99.90
8858;DHT22;4465;50.904;4.696;2023-04-24T08:58:43;10.00;99.90
8858;DHT22;4465;50.904;4.696;2023-04-24T09:01:10;10.10;99.90
8858;DHT22;4465;50.904;4.696;2023-04-24T09:03:36;10.30;99.90
8858;DHT22;4465;50.904;4.696;2023-04-24T09:06:02;10.30;99.90
8858;DHT22;4465;50.904;4.696;2023-04-24T09:08:31;10.40;99.90
8858;DHT22;4465;50.904;4.696;2023-04-24T09:10:57;10.30;99.90
8858;DHT22;4465;50.904;4.696;2023-04-24T09:13:24;10.20;99.90
8858;DHT22;4465;50.904;4.696;2023-04-24T09:15:50;10.20;99.90
8858;DHT22;4465;50.904;4.696;2023-04-24T09:18:16;10.10;99.90
8858;DHT22;4465;50.904;4.696;2023-04-24T09:21:02;10.10;99.90
8858;DHT22;4465;50.904;4.696;2023-04-24T09:23:31;10.00;99.90
8858;DHT22;4465;50.904;4.696;2023-04-24T09:25:57;10.00;99.90
8858;DHT22;4465;50.904;4.696;2023-04-24T09:28:30;10.00;99.90
8858;DHT22;4465;50.904;4.696;2023-04-24T09:31:06;10.00;99.90
8858;DHT22;4465;50.904;4.696;2023-04-24T09:33:38;10.20;99.90
8858;DHT22;4465;50.904;4.696;2023-04-24T09:36:04;10.40;99.90
8858;DHT22;4465;50.904;4.696;2023-04-24T09:38:37;10.70;99.90
8858;DHT22;4465;50.904;4.696;2023-04-24T09:41:07;10.90;99.90
8858;DHT22;4465;50.904;4.696;2023-04-24T09:43:36;11.10;99.90
8858;DHT22;4465;50.904;4.696;2023-04-24T09:46:05;11.20;99.90
8858;DHT22;4465;50.904;4.696;2023-04-24T09:48:35;11.20;99.90
8858;DHT22;4465;50.904;4.696;2023-04-24T09:51:02;11.10;99.90
8858;DHT22;4465;50.904;4.696;2023-04-24T09:53:30;11.10;99.90
8858;DHT22;4465;50.904;4.696;2023-04-24T09:56:01;11.00;99.90
8858;DHT22;4465;50.904;4.696;2023-04-24T09:58:29;10.90;99.90
8858;DHT22;4465;50.904;4.696;2023-04-24T10:00:58;10.80;99.90
8858;DHT22;4465;50.904;4.696;2023-04-24T10:03:26;10.80;99.90
8858;DHT22;4465;50.904;4.696;2023-04-24T10:05:57;10.80;99.90
8858;DHT22;4465;50.904;4.696;2023-04-24T10:08:23;10.90;99.90
8858;DHT22;4465;50.904;4.696;2023-04-24T10:10:52;11.00;99.90
8858;DHT22;4465;50.904;4.696;2023-04-24T10:13:18;11.20;99.90
8858;DHT22;4465;50.904;4.696;2023-04-24T10:15:44;11.30;99.90
8858;DHT22;4465;50.904;4.696;2023-04-24T10:18:12;11.30;99.90
8858;DHT22;4465;50.904;4.696;2023-04-24T10:20:38;11.30;99.90
8858;DHT22;4465;50.904;4.696;2023-04-24T10:23:05;11.30;99.90
8858;DHT22;4465;50.904;4.696;2023-04-24T10:25:32;11.20;99.90
8858;DHT22;4465;50.904;4.696;2023-04-24T10:27:58;11.20;99.90
8858;DHT22;4465;50.904;4.696;2023-04-24T10:30:31;11.20;99.90
8858;DHT22;4465;50.904;4.696;2023-04-24T10:33:03;11.20;99.90
8858;DHT22;4465;50.904;4.696;2023-04-24T10:35:33;11.30;99.90
8858;DHT22;4465;50.904;4.696;2023-04-24T10:38:06;11.40;99.90
8858;DHT22;4465;50.904;4.696;2023-04-24T10:40:34;11.50;99.90
8858;DHT22;4465;50.904;4.696;2023-04-24T10:43:02;11.70;99.90
8858;DHT22;4465;50.904;4.696;2023-04-24T10:45:28;11.80;99.90
8858;DHT22;4465;50.904;4.696;2023-04-24T10:47:57;12.00;99.90
8858;DHT22;4465;50.904;4.696;2023-04-24T10:50:26;12.00;99.90
8858;DHT22;4465;50.904;4.696;2023-04-24T10:52:53;12.10;99.90
8858;DHT22;4465;50.904;4.696;2023-04-24T10:56:21;12.10;99.90
8858;DHT22;4465;50.904;4.696;2023-04-24T10:58:15;12.00;99.90
8858;DHT22;4465;50.904;4.696;2023-04-24T11:00:47;11.90;99.90
8858;DHT22;4465;50.904;4.696;2023-04-24T11:03:24;11.80;99.90
8858;DHT22;4465;50.904;4.696;2023-04-24T11:05:51;11.70;99.90
8858;DHT22;4465;50.904;4.696;2023-04-24T11:08:24;11.70;99.90
8858;DHT22;4465;50.904;4.696;2023-04-24T11:11:07;11.60;99.90
8858;DHT22;4465;50.904;4.696;2023-04-24T11:16:25;11.60;99.90
8858;DHT22;4465;50.904;4.696;2023-04-24T11:18:52;11.60;99.90
8858;DHT22;4465;50.904;4.696;2023-04-24T11:21:20;11.60;99.90
8858;DHT22;4465;50.904;4.696;2023-04-24T11:23:48;11.70;99.90
8858;DHT22;4465;50.904;4.696;2023-04-24T11:26:23;11.70;99.90
8858;DHT22;4465;50.904;4.696;2023-04-24T11:29:07;11.80;99.90
8858;DHT22;4465;50.904;4.696;2023-04-24T11:31:40;11.90;99.90
8858;DHT22;4465;50.904;4.696;2023-04-24T11:34:07;12.00;99.90
8858;DHT22;4465;50.904;4.696;2023-04-24T11:36:36;12.10;99.90
8858;DHT22;4465;50.904;4.696;2023-04-24T11:39:04;12.10;99.90
8858;DHT22;4465;50.904;4.696;2023-04-24T11:41:33;12.10;99.90
8858;DHT22;4465;50.904;4.696;2023-04-24T11:43:59;12.10;99.90
8858;DHT22;4465;50.904;4.696;2023-04-24T11:46:28;12.10;99.90
8858;DHT22;4465;50.904;4.696;2023-04-24T11:48:58;12.20;99.90
8858;DHT22;4465;50.904;4.696;2023-04-24T11:51:24;12.20;99.90
8858;DHT22;4465;50.904;4.696;2023-04-24T11:53:55;12.20;99.90
8858;DHT22;4465;50.904;4.696;2023-04-24T11:56:24;12.40;99.90
8858;DHT22;4465;50.904;4.696;2023-04-24T11:58:52;12.60;99.90
8858;DHT22;4465;50.904;4.696;2023-04-24T12:01:22;12.70;99.90
8858;DHT22;4465;50.904;4.696;2023-04-24T12:03:49;12.90;99.90
8858;DHT22;4465;50.904;4.696;2023-04-24T12:06:18;12.90;99.90
8858;DHT22;4465;50.904;4.696;2023-04-24T12:08:47;12.80;99.90
8858;DHT22;4465;50.904;4.696;2023-04-24T12:11:14;12.80;99.90
8858;DHT22;4465;50.904;4.696;2023-04-24T12:13:40;12.90;99.90
8858;DHT22;4465;50.904;4.696;2023-04-24T12:16:06;12.80;99.90
8858;DHT22;4465;50.904;4.696;2023-04-24T12:18:32;12.70;99.90
8858;DHT22;4465;50.904;4.696;2023-04-24T12:21:22;12.80;99.90
8858;DHT22;4465;50.904;4.696;2023-04-24T12:23:49;12.90;99.90
8858;DHT22;4465;50.904;4.696;2023-04-24T12:26:19;13.40;99.90
8858;DHT22;4465;50.904;4.696;2023-04-24T12:28:48;13.60;99.90
8858;DHT22;4465;50.904;4.696;2023-04-24T12:31:17;13.80;99.90
8858;DHT22;4465;50.904;4.696;2023-04-24T12:33:43;13.80;99.90
8858;DHT22;4465;50.904;4.696;2023-04-24T12:36:12;13.90;99.90
8858;DHT22;4465;50.904;4.696;2023-04-24T12:38:38;13.90;99.90
8858;DHT22;4465;50.904;4.696;2023-04-24T12:41:07;13.90;99.90
8858;DHT22;4465;50.904;4.696;2023-04-24T12:43:36;13.80;99.90
8858;DHT22;4465;50.904;4.696;2023-04-24T12:46:02;13.80;99.90
8858;DHT22;4465;50.904;4.696;2023-04-24T12:48:30;13.80;99.90
8858;DHT22;4465;50.904;4.696;2023-04-24T12:51:00;13.90;99.90
8858;DHT22;4465;50.904;4.696;2023-04-24T12:53:29;14.00;99.90
8858;DHT22;4465;50.904;4.696;2023-04-24T12:55:56;14.10;99.90
8858;DHT22;4465;50.904;4.696;2023-04-24T12:58:22;14.30;99.90
8858;DHT22;4465;50.904;4.696;2023-04-24T13:00:48;14.30;99.90
8858;DHT22;4465;50.904;4.696;2023-04-24T13:03:14;14.40;99.90
8858;DHT22;4465;50.904;4.696;2023-04-24T13:05:40;14.50;99.90
8858;DHT22;4465;50.904;4.696;2023-04-24T13:08:06;14.60;99.90
8858;DHT22;4465;50.904;4.696;2023-04-24T13:10:31;14.60;99.90
8858;DHT22;4465;50.904;4.696;2023-04-24T13:12:57;14.60;99.90
8858;DHT22;4465;50.904;4.696;2023-04-24T13:15:23;14.50;99.90
8858;DHT22;4465;50.904;4.696;2023-04-24T13:17:51;14.50;99.90
8858;DHT22;4465;50.904;4.696;2023-04-24T13:20:17;14.50;99.90
8858;DHT22;4465;50.904;4.696;2023-04-24T13:22:43;14.70;99.90
8858;DHT22;4465;50.904;4.696;2023-04-24T13:25:09;14.90;99.90
8858;DHT22;4465;50.904;4.696;2023-04-24T13:27:38;15.00;99.90
8858;DHT22;4465;50.904;4.696;2023-04-24T13:30:04;15.10;99.90
8858;DHT22;4465;50.904;4.696;2023-04-24T13:32:30;15.20;99.90
8858;DHT22;4465;50.904;4.696;2023-04-24T13:34:56;15.30;99.90
8858;DHT22;4465;50.904;4.696;2023-04-24T13:37:22;15.50;99.90
8858;DHT22;4465;50.904;4.696;2023-04-24T13:39:48;15.70;99.90
8858;DHT22;4465;50.904;4.696;2023-04-24T13:42:14;15.90;99.90
8858;DHT22;4465;50.904;4.696;2023-04-24T13:44:42;15.80;99.90
8858;DHT22;4465;50.904;4.696;2023-04-24T13:47:08;15.70;99.90
8858;DHT22;4465;50.904;4.696;2023-04-24T13:49:36;15.70;99.90
8858;DHT22;4465;50.904;4.696;2023-04-24T13:52:02;15.70;99.90
8858;DHT22;4465;50.904;4.696;2023-04-24T13:54:27;15.70;99.90
8858;DHT22;4465;50.904;4.696;2023-04-24T13:56:55;15.70;99.90
8858;DHT22;4465;50.904;4.696;2023-04-24T13:59:21;15.70;99.90
8858;DHT22;4465;50.904;4.696;2023-04-24T14:01:47;15.70;99.90
8858;DHT22;4465;50.904;4.696;2023-04-24T14:04:16;15.70;99.90
8858;DHT22;4465;50.904;4.696;2023-04-24T14:06:42;15.70;99.90
8858;DHT22;4465;50.904;4.696;2023-04-24T14:09:07;15.60;99.90
8858;DHT22;4465;50.904;4.696;2023-04-24T14:11:33;15.50;99.90
8858;DHT22;4465;50.904;4.696;2023-04-24T14:13:59;15.40;99.90
8858;DHT22;4465;50.904;4.696;2023-04-24T14:16:25;15.20;99.90
8858;DHT22;4465;50.904;4.696;2023-04-24T14:18:51;15.20;99.90
8858;DHT22;4465;50.904;4.696;2023-04-24T14:21:19;15.10;99.90
8858;DHT22;4465;50.904;4.696;2023-04-24T14:23:45;14.90;99.90
8858;DHT22;4465;50.904;4.696;2023-04-24T14:26:11;14.90;99.90
8858;DHT22;4465;50.904;4.696;2023-04-24T14:28:37;14.90;99.90
8858;DHT22;4465;50.904;4.696;2023-04-24T14:31:05;14.90;99.90
8858;DHT22;4465;50.904;4.696;2023-04-24T14:33:31;15.00;99.90
8858;DHT22;4465;50.904;4.696;2023-04-24T14:35:57;15.00;99.90
8858;DHT22;4465;50.904;4.696;2023-04-24T14:38:22;15.00;99.90
8858;DHT22;4465;50.904;4.696;2023-04-24T14:40:48;15.00;99.90
8858;DHT22;4465;50.904;4.696;2023-04-24T14:43:16;15.00;99.90
8858;DHT22;4465;50.904;4.696;2023-04-24T14:45:42;14.80;99.90
8858;DHT22;4465;50.904;4.696;2023-04-24T14:48:10;14.70;99.90
8858;DHT22;4465;50.904;4.696;2023-04-24T14:50:38;14.50;99.90
8858;DHT22;4465;50.904;4.696;2023-04-24T14:53:04;14.40;99.90
8858;DHT22;4465;50.904;4.696;2023-04-24T14:55:32;14.30;99.90
8858;DHT22;4465;50.904;4.696;2023-04-24T14:58:00;14.20;99.90
8858;DHT22;4465;50.904;4.696;2023-04-24T15:00:25;14.10;99.90
8858;DHT22;4465;50.904;4.696;2023-04-24T15:02:51;14.10;99.90
8858;DHT22;4465;50.904;4.696;2023-04-24T15:05:17;14.00;99.90
8858;DHT22;4465;50.904;4.696;2023-04-24T15:07:43;13.80;99.90
8858;DHT22;4465;50.904;4.696;2023-04-24T15:10:09;13.70;99.90
8858;DHT22;4465;50.904;4.696;2023-04-24T15:12:35;13.60;99.90
8858;DHT22;4465;50.904;4.696;2023-04-24T15:15:00;13.50;99.90
8858;DHT22;4465;50.904;4.696;2023-04-24T15:17:26;13.50;99.90
8858;DHT22;4465;50.904;4.696;2023-04-24T15:19:54;13.40;99.90
8858;DHT22;4465;50.904;4.696;2023-04-24T15:22:20;13.30;99.90
8858;DHT22;4465;50.904;4.696;2023-04-24T15:24:46;13.30;99.90
8858;DHT22;4465;50.904;4.696;2023-04-24T15:27:11;13.30;99.90
8858;DHT22;4465;50.904;4.696;2023-04-24T15:29:37;13.20;99.90
8858;DHT22;4465;50.904;4.696;2023-04-24T15:32:03;13.10;99.90
8858;DHT22;4465;50.904;4.696;2023-04-24T15:34:29;13.10;99.90
8858;DHT22;4465;50.904;4.696;2023-04-24T15:37:00;13.10;99.90
8858;DHT22;4465;50.904;4.696;2023-04-24T15:39:28;13.10;99.90
8858;DHT22;4465;50.904;4.696;2023-04-24T15:41:54;13.00;99.90
8858;DHT22;4465;50.904;4.696;2023-04-24T15:44:21;13.00;99.90
8858;DHT22;4465;50.904;4.696;2023-04-24T15:46:46;12.90;99.90
8858;DHT22;4465;50.904;4.696;2023-04-24T15:49:12;12.90;99.90
8858;DHT22;4465;50.904;4.696;2023-04-24T15:51:38;12.90;99.90
8858;DHT22;4465;50.904;4.696;2023-04-24T15:54:06;12.90;99.90
8858;DHT22;4465;50.904;4.696;2023-04-24T15:56:32;12.90;99.90
8858;DHT22;4465;50.904;4.696;2023-04-24T15:58:58;12.90;99.90
8858;DHT22;4465;50.904;4.696;2023-04-24T16:01:25;12.90;99.90
8858;DHT22;4465;50.904;4.696;2023-04-24T16:03:51;12.90;99.90
8858;DHT22;4465;50.904;4.696;2023-04-24T16:06:19;12.90;99.90
8858;DHT22;4465;50.904;4.696;2023-04-24T16:08:44;12.90;99.90
8858;DHT22;4465;50.904;4.696;2023-04-24T16:11:13;12.80;99.90
8858;DHT22;4465;50.904;4.696;2023-04-24T16:13:39;12.80;99.90